createdAt,value
2019-03-03T00:00:00.325Z,34.10
2019-03-03T00:01:54.531Z,59.20
2019-03-03T00:02:54.530Z,40.60
2019-03-03T00:04:49.019Z,58.40
2019-03-03T00:05:48.883Z,56.80
2019-03-03T00:07:43.250Z,34.70
2019-03-03T00:08:43.242Z,26.00
2019-03-03T00:10:37.606Z,47.80
2019-03-03T00:11:37.596Z,50.10
2019-03-03T00:13:31.977Z,34.40
2019-03-03T00:14:31.970Z,24.40
2019-03-03T00:16:26.358Z,44.50
2019-03-03T00:17:26.335Z,33.10
2019-03-03T00:19:20.703Z,35.20
2019-03-03T00:20:20.699Z,25.30
2019-03-03T00:21:20.686Z,19.20
2019-03-03T00:22:20.678Z,25.80
2019-03-03T00:23:20.672Z,23.20
2019-03-03T00:24:20.668Z,130.70
2019-03-03T00:25:20.662Z,91.00
2019-03-03T00:26:20.655Z,115.50
2019-03-03T00:27:20.650Z,47.90
2019-03-03T00:28:20.642Z,90.50
2019-03-03T00:29:20.637Z,34.20
2019-03-03T00:30:20.627Z,28.00
2019-03-03T00:31:20.624Z,29.50
2019-03-03T00:32:20.614Z,33.80
2019-03-03T00:33:20.608Z,32.50
2019-03-03T00:34:20.605Z,34.90
2019-03-03T00:35:21.519Z,21.50
2019-03-03T00:36:20.590Z,32.10
2019-03-03T00:37:20.590Z,28.00
2019-03-03T00:38:20.584Z,24.70
2019-03-03T00:39:20.575Z,21.10
2019-03-03T00:40:20.568Z,30.30
2019-03-03T00:41:20.560Z,25.70
2019-03-03T00:42:20.561Z,18.10
2019-03-03T00:43:20.546Z,26.00
2019-03-03T00:44:20.544Z,34.70
2019-03-03T00:45:20.537Z,38.60
2019-03-03T00:46:20.528Z,38.40
2019-03-03T00:47:20.526Z,66.00
2019-03-03T00:48:20.516Z,81.80
2019-03-03T00:49:20.520Z,68.60
2019-03-03T00:50:20.550Z,59.90
2019-03-03T00:51:20.498Z,48.90
2019-03-03T00:52:20.497Z,31.00
2019-03-03T00:53:20.489Z,36.00
2019-03-03T00:54:20.485Z,31.80
2019-03-03T00:55:20.472Z,32.40
2019-03-03T00:56:20.471Z,21.30
2019-03-03T00:57:20.465Z,26.90
2019-03-03T00:58:20.460Z,24.00
2019-03-03T00:59:20.503Z,113.50
2019-03-03T01:00:20.448Z,33.00
2019-03-03T01:01:20.440Z,42.40
2019-03-03T01:02:20.434Z,53.20
2019-03-03T01:03:20.439Z,50.60
2019-03-03T01:04:20.421Z,47.30
2019-03-03T01:05:20.417Z,32.00
2019-03-03T01:06:20.413Z,40.60
2019-03-03T01:07:20.402Z,42.50
2019-03-03T01:08:20.446Z,38.30
2019-03-03T01:09:20.391Z,54.50
2019-03-03T01:10:20.385Z,40.30
2019-03-03T01:11:20.378Z,31.20
2019-03-03T01:12:20.371Z,26.90
2019-03-03T01:13:20.369Z,18.30
2019-03-03T01:14:20.363Z,26.30
2019-03-03T01:15:20.354Z,28.20
2019-03-03T01:16:20.349Z,43.10
2019-03-03T01:17:20.350Z,29.80
2019-03-03T01:18:20.337Z,28.80
2019-03-03T01:19:20.331Z,20.40
2019-03-03T01:20:20.323Z,22.20
2019-03-03T01:21:20.320Z,28.00
2019-03-03T01:22:20.313Z,14.60
2019-03-03T01:23:20.305Z,35.10
2019-03-03T01:24:20.304Z,39.00
2019-03-03T01:25:20.297Z,26.70
2019-03-03T01:26:20.287Z,57.30
2019-03-03T01:27:20.286Z,64.10
2019-03-03T01:28:22.272Z,30.70
2019-03-03T01:29:20.284Z,37.40
2019-03-03T01:30:20.272Z,22.60
2019-03-03T01:31:20.279Z,19.10
2019-03-03T01:32:20.251Z,17.40
2019-03-03T01:33:20.249Z,29.10
2019-03-03T01:34:20.241Z,20.30
2019-03-03T01:35:20.238Z,38.00
2019-03-03T01:36:20.282Z,27.90
2019-03-03T01:37:20.224Z,32.70
2019-03-03T01:38:20.216Z,36.60
2019-03-03T01:39:20.210Z,26.60
2019-03-03T01:40:20.205Z,23.50
2019-03-03T01:41:20.198Z,19.90
2019-03-03T01:42:20.195Z,29.30
2019-03-03T01:43:20.185Z,40.30
2019-03-03T01:44:20.181Z,35.90
2019-03-03T01:45:20.178Z,26.30
2019-03-03T01:46:20.170Z,21.30
2019-03-03T01:47:20.162Z,39.50
2019-03-03T01:48:20.157Z,27.50
2019-03-03T01:49:20.150Z,32.00
2019-03-03T01:50:20.159Z,25.70
2019-03-03T01:51:20.135Z,23.10
2019-03-03T01:52:20.128Z,22.40
2019-03-03T01:53:20.126Z,20.50
2019-03-03T01:54:20.119Z,14.80
2019-03-03T01:55:20.113Z,17.30
2019-03-03T01:56:20.109Z,17.50
2019-03-03T01:57:20.102Z,14.20
2019-03-03T01:58:20.112Z,18.30
2019-03-03T01:59:20.094Z,15.50
2019-03-03T02:00:20.090Z,30.10
2019-03-03T02:01:20.080Z,33.60
2019-03-03T02:02:20.073Z,22.80
2019-03-03T02:03:20.066Z,14.80
2019-03-03T02:04:20.060Z,15.40
2019-03-03T02:05:20.055Z,15.30
2019-03-03T02:06:20.049Z,17.00
2019-03-03T02:07:20.694Z,23.40
2019-03-03T02:08:20.043Z,21.90
2019-03-03T02:09:20.028Z,19.10
2019-03-03T02:10:20.032Z,29.10
2019-03-03T02:11:20.037Z,24.30
2019-03-03T02:12:20.015Z,23.70
2019-03-03T02:13:20.012Z,17.90
2019-03-03T02:14:19.999Z,13.30
2019-03-03T02:15:19.993Z,18.60
2019-03-03T02:16:19.989Z,15.30
2019-03-03T02:17:19.992Z,20.80
2019-03-03T02:18:20.095Z,17.20
2019-03-03T02:19:19.974Z,13.70
2019-03-03T02:20:19.965Z,13.50
2019-03-03T02:21:20.183Z,20.00
2019-03-03T02:22:19.959Z,15.20
2019-03-03T02:23:19.964Z,12.20
2019-03-03T02:24:19.959Z,20.70
2019-03-03T02:25:19.959Z,27.70
2019-03-03T02:26:19.930Z,21.80
2019-03-03T02:27:19.924Z,16.10
2019-03-03T02:28:19.915Z,12.60
2019-03-03T02:29:19.912Z,16.40
2019-03-03T02:30:19.919Z,33.90
2019-03-03T02:31:19.905Z,18.40
2019-03-03T02:32:19.893Z,17.00
2019-03-03T02:33:19.890Z,26.00
2019-03-03T02:34:19.884Z,15.20
2019-03-03T02:35:19.879Z,8.90
2019-03-03T02:36:19.872Z,8.80
2019-03-03T02:37:19.869Z,10.60
2019-03-03T02:38:19.859Z,11.30
2019-03-03T02:39:19.858Z,26.40
2019-03-03T02:40:19.852Z,8.60
2019-03-03T02:41:19.839Z,12.80
2019-03-03T02:42:19.834Z,12.80
2019-03-03T02:43:19.837Z,13.60
2019-03-03T02:44:19.820Z,9.40
2019-03-03T02:45:19.832Z,14.80
2019-03-03T02:46:19.811Z,11.20
2019-03-03T02:47:19.803Z,11.80
2019-03-03T02:48:19.800Z,19.30
2019-03-03T02:49:19.801Z,14.90
2019-03-03T02:50:19.788Z,10.70
2019-03-03T02:51:19.793Z,9.50
2019-03-03T02:52:19.789Z,12.40
2019-03-03T02:53:19.771Z,30.80
2019-03-03T02:54:19.758Z,7.50
2019-03-03T02:55:19.759Z,11.20
2019-03-03T02:56:19.755Z,10.80
2019-03-03T02:57:19.755Z,6.60
2019-03-03T02:58:19.747Z,7.60
2019-03-03T02:59:19.737Z,6.30
2019-03-03T03:00:19.735Z,11.70
2019-03-03T03:01:19.726Z,6.90
2019-03-03T03:02:19.716Z,4.20
2019-03-03T03:03:19.714Z,7.10
2019-03-03T03:04:19.709Z,6.20
2019-03-03T03:05:19.705Z,7.20
2019-03-03T03:06:19.705Z,7.70
2019-03-03T03:07:19.717Z,7.40
2019-03-03T03:08:19.684Z,8.20
2019-03-03T03:09:19.687Z,6.90
2019-03-03T03:10:19.670Z,4.80
2019-03-03T03:11:19.665Z,7.30
2019-03-03T03:12:19.667Z,4.40
2019-03-03T03:13:19.661Z,8.20
2019-03-03T03:14:19.654Z,4.60
2019-03-03T03:15:19.657Z,4.60
2019-03-03T03:16:19.640Z,3.90
2019-03-03T03:17:19.635Z,4.60
2019-03-03T03:18:19.623Z,4.60
2019-03-03T03:19:19.620Z,4.60
2019-03-03T03:20:19.635Z,6.00
2019-03-03T03:21:19.603Z,4.80
2019-03-03T03:22:19.601Z,5.00
2019-03-03T03:23:19.600Z,6.80
2019-03-03T03:24:19.587Z,3.20
2019-03-03T03:25:19.585Z,4.50
2019-03-03T03:26:19.574Z,3.40
2019-03-03T03:27:19.569Z,3.80
2019-03-03T03:28:19.574Z,4.90
2019-03-03T03:29:19.568Z,5.80
2019-03-03T03:30:19.555Z,3.60
2019-03-03T03:31:19.547Z,7.00
2019-03-03T03:32:19.545Z,6.00
2019-03-03T03:33:19.540Z,4.80
2019-03-03T03:34:19.531Z,5.30
2019-03-03T03:35:19.524Z,4.10
2019-03-03T03:36:19.518Z,6.70
2019-03-03T03:37:19.513Z,5.90
2019-03-03T03:38:19.502Z,4.70
2019-03-03T03:39:19.844Z,3.30
2019-03-03T03:40:19.496Z,4.80
2019-03-03T03:41:19.489Z,6.40
2019-03-03T03:42:19.482Z,7.00
2019-03-03T03:43:19.477Z,5.20
2019-03-03T03:44:19.469Z,7.50
2019-03-03T03:45:19.466Z,5.20
2019-03-03T03:46:19.456Z,4.50
2019-03-03T03:47:19.454Z,3.70
2019-03-03T03:48:19.446Z,4.70
2019-03-03T03:49:19.439Z,4.70
2019-03-03T03:50:21.298Z,4.80
2019-03-03T03:51:19.428Z,6.80
2019-03-03T03:52:19.438Z,7.10
2019-03-03T03:53:19.420Z,5.20
2019-03-03T03:54:19.414Z,8.70
2019-03-03T03:55:19.407Z,6.30
2019-03-03T03:56:19.405Z,3.90
2019-03-03T03:57:19.391Z,6.30
2019-03-03T03:58:19.386Z,6.10
2019-03-03T03:59:19.380Z,5.60
2019-03-03T04:00:19.377Z,6.40
2019-03-03T04:01:19.368Z,6.10
2019-03-03T04:02:19.364Z,8.30
2019-03-03T04:03:19.377Z,4.60
2019-03-03T04:04:19.352Z,6.50
2019-03-03T04:05:19.361Z,9.60
2019-03-03T04:06:19.343Z,6.80
2019-03-03T04:07:19.336Z,9.60
2019-03-03T04:08:19.333Z,5.60
2019-03-03T04:09:19.326Z,6.60
2019-03-03T04:10:20.244Z,6.90
2019-03-03T04:11:19.320Z,7.30
2019-03-03T04:12:19.303Z,6.80
2019-03-03T04:13:19.300Z,4.70
2019-03-03T04:14:19.294Z,3.50
2019-03-03T04:15:19.287Z,4.30
2019-03-03T04:16:19.281Z,5.00
2019-03-03T04:17:19.277Z,3.40
2019-03-03T04:18:40.280Z,6.00
2019-03-03T04:19:19.263Z,5.00
2019-03-03T04:20:19.257Z,6.20
2019-03-03T04:21:19.256Z,5.20
2019-03-03T04:22:19.246Z,6.90
2019-03-03T04:23:19.244Z,6.30
2019-03-03T04:24:19.233Z,3.80
2019-03-03T04:25:19.228Z,6.60
2019-03-03T04:26:19.225Z,6.10
2019-03-03T04:27:19.226Z,5.20
2019-03-03T04:28:19.213Z,6.20
2019-03-03T04:29:19.207Z,8.00
2019-03-03T04:30:19.202Z,4.50
2019-03-03T04:31:19.193Z,8.30
2019-03-03T04:32:19.189Z,7.80
2019-03-03T04:33:19.181Z,6.80
2019-03-03T04:34:19.177Z,7.60
2019-03-03T04:35:19.171Z,5.30
2019-03-03T04:36:19.164Z,6.50
2019-03-03T04:37:19.159Z,6.60
2019-03-03T04:38:19.155Z,9.30
2019-03-03T04:39:19.157Z,6.80
2019-03-03T04:40:19.142Z,6.40
2019-03-03T04:41:19.135Z,6.50
2019-03-03T04:42:19.128Z,7.70
2019-03-03T04:43:19.130Z,6.30
2019-03-03T04:44:19.117Z,6.80
2019-03-03T04:45:19.117Z,6.00
2019-03-03T04:46:19.103Z,5.60
2019-03-03T04:47:19.123Z,9.90
2019-03-03T04:48:19.092Z,6.90
2019-03-03T04:49:19.089Z,4.60
2019-03-03T04:50:19.088Z,5.10
2019-03-03T04:51:19.077Z,4.70
2019-03-03T04:52:19.069Z,5.70
2019-03-03T04:53:19.066Z,8.40
2019-03-03T04:54:19.056Z,5.70
2019-03-03T04:55:19.055Z,7.10
2019-03-03T04:56:19.045Z,4.10
2019-03-03T04:57:19.047Z,9.30
2019-03-03T04:58:19.045Z,6.90
2019-03-03T04:59:19.038Z,4.40
2019-03-03T05:00:19.021Z,6.10
2019-03-03T05:01:19.038Z,7.50
2019-03-03T05:02:19.011Z,6.40
2019-03-03T05:03:19.009Z,6.90
2019-03-03T05:04:18.997Z,6.90
2019-03-03T05:05:18.991Z,5.40
2019-03-03T05:06:18.988Z,6.50
2019-03-03T05:07:18.985Z,4.60
2019-03-03T05:08:18.973Z,5.50
2019-03-03T05:09:18.973Z,5.10
2019-03-03T05:10:18.964Z,6.50
2019-03-03T05:11:19.018Z,7.10
2019-03-03T05:12:18.950Z,6.40
2019-03-03T05:13:18.942Z,4.00
2019-03-03T05:14:18.940Z,7.20
2019-03-03T05:15:18.933Z,7.00
2019-03-03T05:16:18.929Z,5.60
2019-03-03T05:17:18.924Z,7.90
2019-03-03T05:18:18.918Z,6.10
2019-03-03T05:19:18.914Z,6.30
2019-03-03T05:20:18.902Z,7.40
2019-03-03T05:21:18.900Z,10.30
2019-03-03T05:22:18.891Z,6.40
2019-03-03T05:23:18.885Z,6.20
2019-03-03T05:24:18.876Z,8.10
2019-03-03T05:25:18.874Z,8.40
2019-03-03T05:26:18.864Z,8.30
2019-03-03T05:27:18.859Z,5.20
2019-03-03T05:28:18.850Z,8.90
2019-03-03T05:29:18.847Z,7.30
2019-03-03T05:30:18.838Z,6.70
2019-03-03T05:31:18.838Z,8.80
2019-03-03T05:32:18.826Z,6.50
2019-03-03T05:33:18.819Z,7.30
2019-03-03T05:34:18.819Z,8.50
2019-03-03T05:35:18.808Z,10.60
2019-03-03T05:36:18.801Z,6.90
2019-03-03T05:37:18.794Z,8.20
2019-03-03T05:38:18.789Z,9.00
2019-03-03T05:39:18.787Z,8.40
2019-03-03T05:40:18.776Z,7.80
2019-03-03T05:41:18.773Z,7.30
2019-03-03T05:42:19.396Z,7.20
2019-03-03T05:43:18.760Z,7.70
2019-03-03T05:44:18.752Z,10.50
2019-03-03T05:45:18.745Z,11.00
2019-03-03T05:46:18.739Z,9.00
2019-03-03T05:47:18.735Z,8.10
2019-03-03T05:48:18.725Z,6.10
2019-03-03T05:49:18.719Z,7.30
2019-03-03T05:50:18.712Z,11.90
2019-03-03T05:51:18.708Z,13.10
2019-03-03T05:52:18.701Z,10.40
2019-03-03T05:53:18.701Z,7.80
2019-03-03T05:54:18.691Z,9.00
2019-03-03T05:55:18.683Z,8.10
2019-03-03T05:56:19.069Z,8.40
2019-03-03T05:57:18.669Z,9.00
2019-03-03T05:58:18.666Z,9.70
2019-03-03T05:59:18.657Z,8.30
2019-03-03T06:00:18.653Z,8.30
2019-03-03T06:01:18.645Z,9.90
2019-03-03T06:02:18.640Z,7.30
2019-03-03T06:03:18.633Z,8.50
2019-03-03T06:04:18.625Z,7.60
2019-03-03T06:05:18.621Z,9.00
2019-03-03T06:06:18.618Z,11.60
2019-03-03T06:07:18.610Z,9.80
2019-03-03T06:08:18.602Z,11.60
2019-03-03T06:09:18.595Z,10.70
2019-03-03T06:10:18.593Z,8.50
2019-03-03T06:11:18.584Z,10.40
2019-03-03T06:12:18.581Z,7.10
2019-03-03T06:13:18.569Z,9.60
2019-03-03T06:14:18.572Z,8.30
2019-03-03T06:15:18.560Z,9.10
2019-03-03T06:16:18.552Z,9.80
2019-03-03T06:17:18.547Z,7.80
2019-03-03T06:18:18.538Z,10.40
2019-03-03T06:19:18.533Z,13.70
2019-03-03T06:20:18.532Z,8.00
2019-03-03T06:21:18.524Z,11.00
2019-03-03T06:22:18.515Z,7.60
2019-03-03T06:23:18.510Z,9.00
2019-03-03T06:24:18.507Z,12.50
2019-03-03T06:25:18.500Z,9.80
2019-03-03T06:26:18.503Z,10.70
2019-03-03T06:27:18.485Z,10.60
2019-03-03T06:28:18.478Z,7.80
2019-03-03T06:29:18.478Z,6.60
2019-03-03T06:30:18.474Z,8.60
2019-03-03T06:31:18.458Z,6.70
2019-03-03T06:32:18.458Z,9.20
2019-03-03T06:33:18.449Z,7.20
2019-03-03T06:34:18.443Z,11.40
2019-03-03T06:35:18.438Z,10.80
2019-03-03T06:36:18.431Z,9.40
2019-03-03T06:37:18.425Z,8.90
2019-03-03T06:38:18.418Z,6.60
2019-03-03T06:39:18.414Z,9.50
2019-03-03T06:40:18.406Z,7.80
2019-03-03T06:41:18.402Z,13.50
2019-03-03T06:42:18.392Z,8.50
2019-03-03T06:43:18.385Z,7.20
2019-03-03T06:44:18.381Z,6.80
2019-03-03T06:45:18.377Z,7.40
2019-03-03T06:46:18.370Z,12.90
2019-03-03T06:47:18.363Z,9.20
2019-03-03T06:48:18.359Z,7.50
2019-03-03T06:49:18.355Z,7.40
2019-03-03T06:50:18.347Z,11.20
2019-03-03T06:51:18.341Z,10.20
2019-03-03T06:52:18.332Z,8.90
2019-03-03T06:53:18.327Z,6.10
2019-03-03T06:54:18.323Z,8.10
2019-03-03T06:55:18.317Z,9.50
2019-03-03T06:56:18.311Z,11.40
2019-03-03T06:57:18.315Z,7.90
2019-03-03T06:58:18.299Z,9.00
2019-03-03T06:59:18.290Z,12.90
2019-03-03T07:00:18.287Z,12.80
2019-03-03T07:01:18.278Z,9.00
2019-03-03T07:02:18.275Z,5.10
2019-03-03T07:03:18.270Z,6.10
2019-03-03T07:04:18.263Z,7.20
2019-03-03T07:05:18.258Z,5.40
2019-03-03T07:06:18.249Z,10.70
2019-03-03T07:07:18.242Z,6.60
2019-03-03T07:08:18.238Z,9.00
2019-03-03T07:09:18.236Z,7.20
2019-03-03T07:10:18.226Z,11.70
2019-03-03T07:11:18.222Z,6.10
2019-03-03T07:12:18.215Z,6.90
2019-03-03T07:13:18.212Z,11.20
2019-03-03T07:14:18.561Z,6.60
2019-03-03T07:15:18.196Z,8.10
2019-03-03T07:16:18.194Z,8.30
2019-03-03T07:17:18.185Z,5.70
2019-03-03T07:18:18.177Z,6.30
2019-03-03T07:19:18.172Z,7.60
2019-03-03T07:20:18.167Z,8.60
2019-03-03T07:21:18.161Z,10.50
2019-03-03T07:22:18.157Z,5.50
2019-03-03T07:23:18.150Z,7.00
2019-03-03T07:24:18.153Z,8.40
2019-03-03T07:25:18.139Z,9.00
2019-03-03T07:26:18.134Z,7.60
2019-03-03T07:27:18.128Z,7.20
2019-03-03T07:28:18.129Z,8.50
2019-03-03T07:29:18.115Z,8.60
2019-03-03T07:30:18.124Z,7.50
2019-03-03T07:31:18.103Z,7.90
2019-03-03T07:32:18.103Z,5.90
2019-03-03T07:33:18.091Z,7.40
2019-03-03T07:34:18.088Z,7.30
2019-03-03T07:35:18.080Z,7.50
2019-03-03T07:36:18.078Z,8.90
2019-03-03T07:37:18.071Z,7.60
2019-03-03T07:38:18.074Z,7.60
2019-03-03T07:39:18.060Z,6.30
2019-03-03T07:40:18.057Z,9.60
2019-03-03T07:41:18.048Z,5.80
2019-03-03T07:42:18.039Z,9.00
2019-03-03T07:43:18.038Z,10.10
2019-03-03T07:44:18.032Z,5.60
2019-03-03T07:45:18.965Z,8.30
2019-03-03T07:46:18.019Z,6.20
2019-03-03T07:47:18.016Z,10.30
2019-03-03T07:48:18.052Z,9.20
2019-03-03T07:49:18.031Z,6.40
2019-03-03T07:50:17.995Z,9.60
2019-03-03T07:51:17.993Z,7.10
2019-03-03T07:52:18.278Z,8.10
2019-03-03T07:53:17.982Z,6.50
2019-03-03T07:54:17.978Z,8.90
2019-03-03T07:55:17.968Z,4.00
2019-03-03T07:56:17.966Z,6.90
2019-03-03T07:57:17.965Z,5.50
2019-03-03T07:58:17.957Z,10.00
2019-03-03T07:59:17.948Z,5.80
2019-03-03T08:00:17.945Z,7.80
2019-03-03T08:01:17.939Z,6.60
2019-03-03T08:02:17.934Z,6.00
2019-03-03T08:03:17.927Z,4.60
2019-03-03T08:04:17.922Z,6.00
2019-03-03T08:05:17.919Z,9.60
2019-03-03T08:06:17.912Z,7.40
2019-03-03T08:07:17.915Z,6.60
2019-03-03T08:08:17.901Z,11.00
2019-03-03T08:09:17.894Z,5.20
2019-03-03T08:10:17.887Z,5.60
2019-03-03T08:11:17.903Z,8.80
2019-03-03T08:12:17.878Z,5.40
2019-03-03T08:13:17.871Z,3.80
2019-03-03T08:14:17.867Z,8.30
2019-03-03T08:15:17.863Z,6.40
2019-03-03T08:16:17.857Z,7.00
2019-03-03T08:17:17.855Z,4.70
2019-03-03T08:18:17.846Z,5.80
2019-03-03T08:19:17.851Z,7.90
2019-03-03T08:20:17.834Z,6.40
2019-03-03T08:21:17.830Z,6.90
2019-03-03T08:22:17.826Z,6.90
2019-03-03T08:23:17.824Z,6.00
2019-03-03T08:24:17.813Z,7.80
2019-03-03T08:25:17.810Z,7.00
2019-03-03T08:26:17.804Z,7.90
2019-03-03T08:27:17.797Z,8.20
2019-03-03T08:28:17.799Z,3.90
2019-03-03T08:29:17.806Z,8.40
2019-03-03T08:30:17.790Z,6.40
2019-03-03T08:31:17.775Z,5.10
2019-03-03T08:32:17.772Z,6.30
2019-03-03T08:33:17.767Z,4.90
2019-03-03T08:34:17.759Z,5.90
2019-03-03T08:35:17.753Z,4.10
2019-03-03T08:36:17.753Z,4.70
2019-03-03T08:37:17.747Z,6.70
2019-03-03T08:38:17.754Z,4.40
2019-03-03T08:39:17.737Z,4.80
2019-03-03T08:40:17.748Z,8.00
2019-03-03T08:41:17.726Z,6.50
2019-03-03T08:42:17.717Z,5.30
2019-03-03T08:43:17.713Z,10.10
2019-03-03T08:44:17.711Z,7.20
2019-03-03T08:45:17.722Z,5.60
2019-03-03T08:46:17.725Z,7.70
2019-03-03T08:47:17.696Z,8.10
2019-03-03T08:48:17.692Z,7.90
2019-03-03T08:49:17.686Z,4.60
2019-03-03T08:50:17.682Z,7.50
2019-03-03T08:51:17.672Z,6.00
2019-03-03T08:52:17.670Z,7.40
2019-03-03T08:53:17.665Z,7.40
2019-03-03T08:54:17.661Z,6.50
2019-03-03T08:55:17.659Z,7.40
2019-03-03T08:56:17.653Z,5.80
2019-03-03T08:57:17.658Z,6.20
2019-03-03T08:58:17.637Z,6.80
2019-03-03T08:59:17.634Z,8.60
2019-03-03T09:00:18.256Z,8.40
2019-03-03T09:01:17.631Z,8.80
2019-03-03T09:02:17.622Z,8.40
2019-03-03T09:03:17.618Z,7.20
2019-03-03T09:04:17.615Z,5.60
2019-03-03T09:05:17.611Z,7.50
2019-03-03T09:06:17.600Z,5.50
2019-03-03T09:07:17.600Z,7.30
2019-03-03T09:08:17.592Z,2.70
2019-03-03T09:09:17.591Z,5.80
2019-03-03T09:10:25.207Z,6.60
2019-03-03T09:11:17.582Z,7.70
2019-03-03T09:12:17.577Z,6.90
2019-03-03T09:13:17.570Z,5.50
2019-03-03T09:14:17.566Z,6.20
2019-03-03T09:15:17.564Z,6.70
2019-03-03T09:16:17.558Z,4.60
2019-03-03T09:17:18.129Z,3.80
2019-03-03T09:18:17.550Z,5.30
2019-03-03T09:19:17.600Z,4.20
2019-03-03T09:20:17.540Z,8.80
2019-03-03T09:21:17.537Z,7.20
2019-03-03T09:22:17.530Z,5.80
2019-03-03T09:23:17.539Z,5.60
2019-03-03T09:24:17.522Z,11.00
2019-03-03T09:25:17.520Z,4.70
2019-03-03T09:26:17.514Z,6.50
2019-03-03T09:27:17.509Z,4.50
2019-03-03T09:28:17.507Z,4.00
2019-03-03T09:29:17.503Z,7.30
2019-03-03T09:30:17.500Z,3.80
2019-03-03T09:31:17.494Z,5.00
2019-03-03T09:32:17.489Z,8.80
2019-03-03T09:33:17.484Z,3.60
2019-03-03T09:34:17.489Z,6.60
2019-03-03T09:35:17.478Z,8.40
2019-03-03T09:36:17.476Z,5.10
2019-03-03T09:37:17.469Z,6.00
2019-03-03T09:38:17.461Z,6.00
2019-03-03T09:39:17.456Z,4.30
2019-03-03T09:40:17.454Z,6.20
2019-03-03T09:41:17.456Z,7.00
2019-03-03T09:42:17.446Z,5.80
2019-03-03T09:43:17.441Z,5.90
2019-03-03T09:44:17.443Z,7.90
2019-03-03T09:45:17.439Z,4.00
2019-03-03T09:46:17.430Z,4.60
2019-03-03T09:47:17.426Z,4.30
2019-03-03T09:48:17.434Z,4.50
2019-03-03T09:49:17.419Z,5.90
2019-03-03T09:50:17.415Z,4.60
2019-03-03T09:51:17.412Z,5.30
2019-03-03T09:52:17.455Z,8.00
2019-03-03T09:53:17.401Z,4.70
2019-03-03T09:54:17.396Z,6.30
2019-03-03T09:55:17.409Z,5.30
2019-03-03T09:56:17.415Z,7.90
2019-03-03T09:57:17.385Z,8.20
2019-03-03T09:58:17.453Z,4.10
2019-03-03T09:59:17.380Z,7.30
2019-03-03T10:00:17.378Z,7.30
2019-03-03T10:01:17.373Z,6.80
2019-03-03T10:02:17.369Z,8.70
2019-03-03T10:03:17.362Z,9.40
2019-03-03T10:04:17.361Z,5.70
2019-03-03T10:05:17.355Z,7.90
2019-03-03T10:06:17.355Z,5.80
2019-03-03T10:07:17.350Z,8.60
2019-03-03T10:08:17.342Z,9.80
2019-03-03T10:09:17.335Z,8.50
2019-03-03T10:10:17.334Z,7.00
2019-03-03T10:11:17.421Z,8.40
2019-03-03T10:12:17.324Z,5.90
2019-03-03T10:13:17.319Z,8.90
2019-03-03T10:14:17.315Z,8.50
2019-03-03T10:15:17.311Z,6.70
2019-03-03T10:16:17.320Z,6.00
2019-03-03T10:17:17.306Z,6.00
2019-03-03T10:18:17.300Z,5.40
2019-03-03T10:19:17.307Z,10.00
2019-03-03T10:20:17.295Z,9.30
2019-03-03T10:21:17.293Z,7.20
2019-03-03T10:22:17.285Z,6.40
2019-03-03T10:23:17.282Z,4.80
2019-03-03T10:24:17.277Z,5.80
2019-03-03T10:25:17.326Z,7.10
2019-03-03T10:26:17.279Z,9.20
2019-03-03T10:27:17.265Z,7.10
2019-03-03T10:28:17.263Z,6.60
2019-03-03T10:29:17.259Z,6.10
2019-03-03T10:30:17.256Z,4.50
2019-03-03T10:31:17.252Z,5.70
2019-03-03T10:32:17.247Z,6.50
2019-03-03T10:33:17.245Z,9.00
2019-03-03T10:34:17.239Z,7.50
2019-03-03T10:35:17.235Z,6.70
2019-03-03T10:36:17.234Z,10.40
2019-03-03T10:37:17.229Z,6.30
2019-03-03T10:38:17.228Z,7.40
2019-03-03T10:39:17.243Z,6.60
2019-03-03T10:40:17.218Z,12.20
2019-03-03T10:41:17.218Z,8.40
2019-03-03T10:42:17.208Z,9.50
2019-03-03T10:43:17.217Z,10.30
2019-03-03T10:44:17.207Z,8.40
2019-03-03T10:45:17.200Z,7.00
2019-03-03T10:46:17.197Z,5.70
2019-03-03T10:47:17.196Z,6.40
2019-03-03T10:48:17.273Z,7.30
2019-03-03T10:49:17.293Z,8.40
2019-03-03T10:50:17.187Z,8.70
2019-03-03T10:51:17.177Z,11.40
2019-03-03T10:52:17.174Z,8.40
2019-03-03T10:53:17.170Z,6.80
2019-03-03T10:54:17.169Z,7.70
2019-03-03T10:55:17.166Z,10.10
2019-03-03T10:56:17.161Z,7.80
2019-03-03T10:57:17.157Z,6.80
2019-03-03T10:58:17.154Z,8.50
2019-03-03T10:59:17.166Z,8.30
2019-03-03T11:00:17.147Z,7.80
2019-03-03T11:01:17.147Z,9.30
2019-03-03T11:02:17.136Z,8.40
2019-03-03T11:03:17.132Z,9.00
2019-03-03T11:04:17.153Z,9.80
2019-03-03T11:05:17.130Z,6.10
2019-03-03T11:06:17.124Z,12.80
2019-03-03T11:07:17.119Z,8.30
2019-03-03T11:08:17.119Z,10.60
2019-03-03T11:09:17.112Z,10.40
2019-03-03T11:10:17.107Z,8.10
2019-03-03T11:11:17.106Z,6.20
2019-03-03T11:12:17.110Z,10.20
2019-03-03T11:13:17.098Z,8.40
2019-03-03T11:14:17.097Z,9.30
2019-03-03T11:15:18.665Z,8.90
2019-03-03T11:16:17.159Z,6.90
2019-03-03T11:17:17.089Z,8.80
2019-03-03T11:18:17.092Z,10.20
2019-03-03T11:19:17.081Z,7.60
2019-03-03T11:20:17.682Z,10.20
2019-03-03T11:21:17.071Z,9.20
2019-03-03T11:22:17.068Z,7.80
2019-03-03T11:23:17.067Z,8.60
2019-03-03T11:24:17.062Z,8.60
2019-03-03T11:25:17.087Z,7.20
2019-03-03T11:26:17.054Z,7.60
2019-03-03T11:27:17.052Z,13.80
2019-03-03T11:28:23.682Z,7.10
2019-03-03T11:29:17.042Z,6.10
2019-03-03T11:30:17.041Z,6.50
2019-03-03T11:31:17.036Z,11.10
2019-03-03T11:32:17.035Z,10.50
2019-03-03T11:33:17.033Z,8.50
2019-03-03T11:34:17.028Z,13.10
2019-03-03T11:35:17.022Z,8.40
2019-03-03T11:36:17.017Z,10.90
2019-03-03T11:37:17.020Z,8.10
2019-03-03T11:38:17.011Z,12.80
2019-03-03T11:39:17.008Z,7.50
2019-03-03T11:40:17.008Z,6.10
2019-03-03T11:41:17.001Z,10.90
2019-03-03T11:42:16.996Z,5.60
2019-03-03T11:43:17.002Z,10.00
2019-03-03T11:44:17.009Z,7.30
2019-03-03T11:45:17.001Z,7.70
2019-03-03T11:46:16.987Z,4.80
2019-03-03T11:47:16.979Z,6.80
2019-03-03T11:48:16.984Z,8.80
2019-03-03T11:49:16.987Z,12.60
2019-03-03T11:50:18.892Z,12.00
2019-03-03T11:51:16.964Z,3.80
2019-03-03T11:52:16.960Z,6.90
2019-03-03T11:53:16.962Z,8.90
2019-03-03T11:54:16.955Z,10.70
2019-03-03T11:55:16.950Z,12.10
2019-03-03T11:56:16.946Z,5.80
2019-03-03T11:57:16.948Z,12.00
2019-03-03T11:58:16.940Z,12.10
2019-03-03T11:59:16.935Z,10.90
2019-03-03T12:00:16.934Z,10.80
2019-03-03T12:01:16.929Z,8.40
2019-03-03T12:02:16.935Z,7.10
2019-03-03T12:03:16.938Z,8.90
2019-03-03T12:04:16.921Z,8.70
2019-03-03T12:05:17.053Z,12.40
2019-03-03T12:06:16.909Z,9.90
2019-03-03T12:07:16.904Z,9.20
2019-03-03T12:08:16.908Z,10.00
2019-03-03T12:09:17.013Z,10.20
2019-03-03T12:10:16.958Z,10.70
2019-03-03T12:11:16.938Z,9.10
2019-03-03T12:12:16.888Z,7.60
2019-03-03T12:13:16.922Z,5.90
2019-03-03T12:14:16.876Z,9.10
2019-03-03T12:15:18.389Z,5.10
2019-03-03T12:16:16.885Z,12.00
2019-03-03T12:17:16.881Z,8.90
2019-03-03T12:18:16.862Z,8.90
2019-03-03T12:19:18.396Z,6.80
2019-03-03T12:20:16.865Z,7.80
2019-03-03T12:21:16.852Z,7.00
2019-03-03T12:22:16.847Z,6.90
2019-03-03T12:23:17.259Z,7.30
2019-03-03T12:24:16.837Z,11.30
2019-03-03T12:25:16.837Z,7.70
2019-03-03T12:26:16.833Z,5.40
2019-03-03T12:27:16.828Z,9.40
2019-03-03T12:28:16.826Z,5.80
2019-03-03T12:29:16.824Z,7.70
2019-03-03T12:30:16.820Z,8.00
2019-03-03T12:31:16.814Z,8.40
2019-03-03T12:32:16.855Z,7.80
2019-03-03T12:33:16.925Z,6.00
2019-03-03T12:34:16.805Z,8.40
2019-03-03T12:35:16.809Z,7.00
2019-03-03T12:36:16.799Z,9.20
2019-03-03T12:37:16.795Z,9.00
2019-03-03T12:38:16.793Z,7.40
2019-03-03T12:39:16.881Z,9.00
2019-03-03T12:40:16.781Z,9.70
2019-03-03T12:41:16.781Z,7.20
2019-03-03T12:42:16.803Z,10.00
2019-03-03T12:43:16.793Z,10.80
2019-03-03T12:44:16.770Z,8.20
2019-03-03T12:45:16.763Z,5.40
2019-03-03T12:46:16.767Z,6.70
2019-03-03T12:47:16.758Z,10.60
2019-03-03T12:48:16.753Z,9.50
2019-03-03T12:49:16.749Z,7.40
2019-03-03T12:50:16.743Z,10.80
2019-03-03T12:51:16.743Z,10.10
2019-03-03T12:52:16.764Z,5.80
2019-03-03T12:53:16.744Z,8.60
2019-03-03T12:54:16.730Z,7.40
2019-03-03T12:55:16.732Z,8.10
2019-03-03T12:56:16.723Z,7.70
2019-03-03T12:57:16.717Z,7.40
2019-03-03T12:58:16.713Z,6.50
2019-03-03T12:59:16.711Z,6.00
2019-03-03T13:00:16.707Z,7.40
2019-03-03T13:01:16.705Z,6.80
2019-03-03T13:02:16.704Z,12.00
2019-03-03T13:03:16.696Z,10.50
2019-03-03T13:04:16.689Z,10.10
2019-03-03T13:05:16.689Z,8.30
2019-03-03T13:06:24.157Z,7.50
2019-03-03T13:07:16.679Z,10.50
2019-03-03T13:08:16.677Z,8.70
2019-03-03T13:09:16.678Z,8.10
2019-03-03T13:10:16.681Z,8.40
2019-03-03T13:11:16.675Z,7.40
2019-03-03T13:12:16.660Z,8.30
2019-03-03T13:13:16.656Z,6.20
2019-03-03T13:14:16.655Z,8.70
2019-03-03T13:15:16.652Z,11.70
2019-03-03T13:16:16.642Z,7.50